createdAt,value
2023-04-12T00:01:56.594Z,2.40
2023-04-12T00:04:42.564Z,3.40
2023-04-12T00:07:30.211Z,2.92
2023-04-12T00:10:16.171Z,2.85
2023-04-12T00:13:01.956Z,2.85
2023-04-12T00:15:47.397Z,2.85
2023-04-12T00:18:32.751Z,3.38
2023-04-12T00:21:19.622Z,3.05
2023-04-12T00:24:05.718Z,3.38
2023-04-12T00:26:51.153Z,3.85
2023-04-12T00:29:36.817Z,2.97
2023-04-12T00:32:22.369Z,3.22
2023-04-12T00:35:08.324Z,3.25
2023-04-12T00:37:54.721Z,3.63
2023-04-12T00:40:43.873Z,2.60
2023-04-12T00:43:29.890Z,3.63
2023-04-12T00:46:17.549Z,2.47
2023-04-12T00:49:03.360Z,3.22
2023-04-12T00:51:48.639Z,3.13
2023-04-12T00:54:35.297Z,3.17
2023-04-12T00:57:22.408Z,4.13
2023-04-12T01:00:12.563Z,3.08
2023-04-12T01:02:58.945Z,4.60
2023-04-12T01:05:55.914Z,3.97
2023-04-12T01:08:41.414Z,3.53
2023-04-12T01:11:31.212Z,5.50
2023-04-12T01:14:29.759Z,3.83
2023-04-12T01:17:22.221Z,4.47
2023-04-12T01:20:14.469Z,4.20
2023-04-12T01:23:34.255Z,5.25
2023-04-12T01:26:38.590Z,5.45
2023-04-12T01:29:27.175Z,5.82
2023-04-12T01:32:13.216Z,6.18
2023-04-12T01:35:00.702Z,4.93
2023-04-12T01:37:46.795Z,4.93
2023-04-12T01:40:32.888Z,4.72
2023-04-12T01:43:18.325Z,3.80
2023-04-12T01:46:04.066Z,5.20
2023-04-12T01:48:51.937Z,6.53
2023-04-12T01:51:52.405Z,4.15
2023-04-12T01:54:41.746Z,4.43
2023-04-12T01:57:27.446Z,4.30
2023-04-12T02:00:14.314Z,5.03
2023-04-12T02:03:00.340Z,5.35
2023-04-12T02:05:46.415Z,4.32
2023-04-12T02:08:32.048Z,4.80
2023-04-12T02:11:17.653Z,4.13
2023-04-12T02:14:03.240Z,3.92
2023-04-12T02:16:50.648Z,4.38
2023-04-12T02:19:36.196Z,4.55
2023-04-12T02:22:21.683Z,4.00
2023-04-12T02:25:07.293Z,4.15
2023-04-12T02:27:53.027Z,4.20
2023-04-12T02:30:38.450Z,3.95
2023-04-12T02:33:28.181Z,4.50
2023-04-12T02:36:13.647Z,4.95
2023-04-12T02:38:59.069Z,6.45
2023-04-12T02:41:46.000Z,4.38
2023-04-12T02:44:31.889Z,6.32
2023-04-12T02:47:17.604Z,4.10
2023-04-12T02:50:03.900Z,5.28
2023-04-12T02:52:49.396Z,4.75
2023-04-12T02:55:36.782Z,3.25
2023-04-12T02:58:22.057Z,4.82
2023-04-12T03:01:08.166Z,4.53
2023-04-12T03:03:53.716Z,4.30
2023-04-12T03:06:52.381Z,5.38
2023-04-12T03:09:38.697Z,4.32
2023-04-12T03:12:24.299Z,4.50
2023-04-12T03:15:10.166Z,3.53
2023-04-12T03:17:55.761Z,4.18
2023-04-12T03:20:46.009Z,3.75
2023-04-12T03:23:32.604Z,4.35
2023-04-12T03:26:20.504Z,3.50
2023-04-12T03:29:09.634Z,4.28
2023-04-12T03:31:58.056Z,3.55
2023-04-12T03:34:43.320Z,3.63
2023-04-12T03:37:29.380Z,3.42
2023-04-12T03:40:14.960Z,3.30
2023-04-12T03:43:01.913Z,3.05
2023-04-12T03:45:48.013Z,4.30
2023-04-12T03:48:34.127Z,2.95
2023-04-12T03:51:22.315Z,4.05
2023-04-12T03:54:07.670Z,3.83
2023-04-12T03:56:52.879Z,3.10
2023-04-12T03:59:38.473Z,4.95
2023-04-12T04:02:24.431Z,3.63
2023-04-12T04:05:13.016Z,3.63
2023-04-12T04:08:02.391Z,3.45
2023-04-12T04:10:48.304Z,2.47
2023-04-12T04:13:34.028Z,3.25
2023-04-12T04:16:19.655Z,2.72
2023-04-12T04:19:05.273Z,3.42
2023-04-12T04:21:50.860Z,4.45
2023-04-12T04:24:39.144Z,3.08
2023-04-12T04:27:24.917Z,2.75
2023-04-12T04:30:11.848Z,2.90
2023-04-12T04:32:58.223Z,3.75
2023-04-12T04:35:43.967Z,3.33
2023-04-12T04:38:32.656Z,5.18
2023-04-12T04:41:22.637Z,3.72
2023-04-12T04:44:11.296Z,3.15
2023-04-12T04:46:59.153Z,4.45
2023-04-12T04:49:45.324Z,3.20
2023-04-12T04:52:30.612Z,4.25
2023-04-12T04:55:17.632Z,3.45
2023-04-12T04:58:03.255Z,2.20
2023-04-12T05:00:49.022Z,4.05
2023-04-12T05:03:34.951Z,3.58
2023-04-12T05:06:20.461Z,3.00
2023-04-12T05:09:05.649Z,2.72
2023-04-12T05:11:51.258Z,2.55
2023-04-12T05:14:47.206Z,2.75
2023-04-12T05:17:35.179Z,4.15
2023-04-12T05:20:20.985Z,3.20
2023-04-12T05:23:06.278Z,3.30
2023-04-12T05:25:51.404Z,2.72
2023-04-12T05:28:37.288Z,3.40
2023-04-12T05:31:23.239Z,3.75
2023-04-12T05:34:09.005Z,2.55
2023-04-12T05:36:54.795Z,3.65
2023-04-12T05:39:40.429Z,2.47
2023-04-12T05:42:26.351Z,2.53
2023-04-12T05:45:12.038Z,4.15
2023-04-12T05:47:57.456Z,3.85
2023-04-12T05:50:54.186Z,3.42
2023-04-12T05:53:40.318Z,2.55
2023-04-12T05:56:25.661Z,5.00
2023-04-12T05:59:12.402Z,3.28
2023-04-12T06:01:58.145Z,2.30
2023-04-12T06:04:50.695Z,3.83
2023-04-12T06:07:39.394Z,3.17
2023-04-12T06:10:24.817Z,4.45
2023-04-12T06:13:10.689Z,3.35
2023-04-12T06:15:56.354Z,3.08
2023-04-12T06:18:41.853Z,2.30
2023-04-12T06:21:27.710Z,2.50
2023-04-12T06:24:12.935Z,4.53
2023-04-12T06:26:58.711Z,3.42
2023-04-12T06:29:44.056Z,4.20
2023-04-12T06:32:29.436Z,3.17
2023-04-12T06:35:15.426Z,3.28
2023-04-12T06:38:01.148Z,3.90
2023-04-12T06:40:47.787Z,3.05
2023-04-12T06:43:33.729Z,2.85
2023-04-12T06:46:26.836Z,3.78
2023-04-12T06:49:12.445Z,2.97
2023-04-12T06:51:58.014Z,4.15
2023-04-12T06:54:44.062Z,3.88
2023-04-12T06:57:29.713Z,2.78
2023-04-12T07:00:15.584Z,2.53
2023-04-12T07:03:00.990Z,3.63
2023-04-12T07:05:47.433Z,2.90
2023-04-12T07:08:34.943Z,4.07
2023-04-12T07:11:22.717Z,2.50
2023-04-12T07:14:08.704Z,4.00
2023-04-12T07:16:54.385Z,2.47
2023-04-12T07:19:42.152Z,2.22
2023-04-12T07:22:27.768Z,3.03
2023-04-12T07:25:13.363Z,2.50
2023-04-12T07:27:58.880Z,3.40
2023-04-12T07:30:44.733Z,3.22
2023-04-12T07:33:32.077Z,2.78
2023-04-12T07:36:21.203Z,3.25
2023-04-12T07:39:11.942Z,2.25
2023-04-12T07:41:57.703Z,2.40
2023-04-12T07:44:43.695Z,2.88
2023-04-12T07:47:29.581Z,2.40
2023-04-12T07:50:15.411Z,2.55
2023-04-12T07:53:23.722Z,2.13
2023-04-12T07:56:09.398Z,2.65
2023-04-12T07:58:55.421Z,2.67
2023-04-12T08:01:50.706Z,2.60
2023-04-12T08:04:36.207Z,2.35
2023-04-12T08:07:22.690Z,2.40
2023-04-12T08:10:08.759Z,2.15
2023-04-12T08:12:54.515Z,3.35
2023-04-12T08:15:40.217Z,2.42
2023-04-12T08:18:26.657Z,2.45
2023-04-12T08:21:12.135Z,2.00
2023-04-12T08:24:01.039Z,1.98
2023-04-12T08:26:47.567Z,2.38
2023-04-12T08:29:34.956Z,3.50
2023-04-12T08:32:23.190Z,2.35
2023-04-12T08:35:09.573Z,1.88
2023-04-12T08:37:55.627Z,1.95
2023-04-12T08:40:43.768Z,2.00
2023-04-12T08:43:29.941Z,1.95
2023-04-12T08:46:16.264Z,2.00
2023-04-12T08:49:02.218Z,1.90
2023-04-12T08:51:50.325Z,2.47
2023-04-12T08:54:37.254Z,1.90
2023-04-12T08:57:23.054Z,1.98
2023-04-12T09:00:09.697Z,2.20
2023-04-12T09:02:55.742Z,1.98
2023-04-12T09:05:41.823Z,2.17
2023-04-12T09:08:27.818Z,1.60
2023-04-12T09:11:30.887Z,1.10
2023-04-12T09:14:26.383Z,1.40
2023-04-12T09:17:28.837Z,2.25
2023-04-12T09:20:17.510Z,1.20
2023-04-12T09:23:26.240Z,0.90
2023-04-12T09:26:28.850Z,0.65
2023-04-12T09:29:25.747Z,0.70
2023-04-12T09:32:13.740Z,0.90
2023-04-12T09:35:02.349Z,0.63
2023-04-12T09:37:58.277Z,0.85
2023-04-12T09:40:43.994Z,0.95
2023-04-12T09:43:39.225Z,0.90
2023-04-12T09:46:25.340Z,0.80
2023-04-12T09:49:12.550Z,1.13
2023-04-12T09:51:59.640Z,0.98
2023-04-12T09:54:48.580Z,0.75
2023-04-12T09:57:36.110Z,1.00
2023-04-12T10:00:27.357Z,1.02
2023-04-12T10:03:13.169Z,0.88
2023-04-12T10:06:00.174Z,0.98
2023-04-12T10:08:46.676Z,1.80
2023-04-12T10:11:34.147Z,1.30
2023-04-12T10:14:22.323Z,1.30
2023-04-12T10:17:11.157Z,1.38
2023-04-12T10:19:57.882Z,1.13
2023-04-12T10:22:47.216Z,1.60
2023-04-12T10:25:33.371Z,1.02
2023-04-12T10:28:21.903Z,0.90
2023-04-12T10:31:35.489Z,0.90
2023-04-12T10:34:27.495Z,1.30
2023-04-12T10:37:16.487Z,0.93
2023-04-12T10:40:03.919Z,1.35
2023-04-12T10:43:09.496Z,1.50
2023-04-12T10:45:57.923Z,1.77
2023-04-12T10:48:56.766Z,1.60
2023-04-12T10:52:09.354Z,1.30
2023-04-12T10:54:55.839Z,1.75
2023-04-12T10:57:44.168Z,1.20
2023-04-12T11:01:11.278Z,1.40
2023-04-12T11:04:14.997Z,1.20
2023-04-12T11:07:06.578Z,1.75
2023-04-12T11:10:00.559Z,1.73
2023-04-12T11:12:55.499Z,1.95
2023-04-12T11:15:49.290Z,1.50
2023-04-12T11:18:39.120Z,1.95
2023-04-12T11:21:25.645Z,1.50
2023-04-12T11:24:12.310Z,1.77
2023-04-12T11:26:59.589Z,1.75
2023-04-12T11:29:48.021Z,1.80
2023-04-12T11:32:34.944Z,1.52
2023-04-12T11:35:28.906Z,1.95
2023-04-12T11:41:00.475Z,1.90
2023-04-12T11:43:47.831Z,2.20
2023-04-12T11:46:34.210Z,2.22
2023-04-12T11:49:23.257Z,2.03
2023-04-12T11:52:09.185Z,1.63
2023-04-12T11:54:58.852Z,1.50
2023-04-12T11:57:56.340Z,2.63
2023-04-12T12:00:43.973Z,1.63
2023-04-12T12:03:29.879Z,2.10
2023-04-12T12:06:16.708Z,2.25
2023-04-12T12:09:04.069Z,1.88
2023-04-12T12:11:51.326Z,3.08
2023-04-12T12:14:37.476Z,2.35
2023-04-12T12:17:23.522Z,1.92
2023-04-12T12:20:20.585Z,2.03
2023-04-12T12:23:06.527Z,2.53
2023-04-12T12:25:57.756Z,2.03
2023-04-12T12:28:54.097Z,2.55
2023-04-12T12:31:47.756Z,2.17
2023-04-12T12:34:36.092Z,3.40
2023-04-12T12:37:25.079Z,2.28
2023-04-12T12:40:16.626Z,3.28
2023-04-12T12:43:07.070Z,4.13
2023-04-12T12:45:59.342Z,3.00
2023-04-12T12:48:46.535Z,4.38
2023-04-12T12:51:32.495Z,3.05
2023-04-12T12:54:32.119Z,4.13
2023-04-12T12:57:26.971Z,2.40
2023-04-12T13:00:15.390Z,3.38
2023-04-12T13:03:02.424Z,3.03
2023-04-12T13:05:50.131Z,2.42
2023-04-12T13:08:39.812Z,2.63
2023-04-12T13:11:25.852Z,3.08
2023-04-12T13:14:11.790Z,3.13
2023-04-12T13:17:06.600Z,3.17
2023-04-12T13:19:58.392Z,2.88
2023-04-12T13:22:57.407Z,3.25
2023-04-12T13:25:43.339Z,2.85
2023-04-12T13:28:29.518Z,4.00
2023-04-12T13:31:14.934Z,4.43
2023-04-12T13:34:04.132Z,4.13
2023-04-12T13:36:52.801Z,4.10
2023-04-12T13:39:40.530Z,2.25
2023-04-12T13:42:28.888Z,2.97
2023-04-12T13:45:16.033Z,2.20
2023-04-12T13:48:02.717Z,2.20
2023-04-12T13:50:50.342Z,3.00
2023-04-12T13:53:36.803Z,2.20
2023-04-12T13:56:22.807Z,2.67
2023-04-12T13:59:08.804Z,2.17
2023-04-12T14:01:54.821Z,2.53
2023-04-12T14:04:52.149Z,2.58
2023-04-12T14:07:37.839Z,1.55
2023-04-12T14:10:23.400Z,1.55
2023-04-12T14:13:08.922Z,1.60
2023-04-12T14:15:55.874Z,2.40
2023-04-12T14:18:42.020Z,2.90
2023-04-12T14:21:29.228Z,2.72
2023-04-12T14:24:16.196Z,1.98
2023-04-12T14:27:02.442Z,2.75
2023-04-12T14:29:48.333Z,1.90
2023-04-12T14:32:34.497Z,2.33
2023-04-12T14:35:19.942Z,3.10
2023-04-12T14:38:06.135Z,3.60
2023-04-12T14:40:51.796Z,2.25
2023-04-12T14:43:36.944Z,2.58
2023-04-12T14:46:23.510Z,1.95
2023-04-12T14:49:08.831Z,2.35
2023-04-12T14:51:54.360Z,3.28
2023-04-12T14:54:39.833Z,1.10
2023-04-12T14:57:25.864Z,1.65
2023-04-12T15:00:15.687Z,1.88
2023-04-12T15:03:01.473Z,1.10
2023-04-12T15:05:47.291Z,1.17
2023-04-12T15:08:35.036Z,1.23
2023-04-12T15:11:22.356Z,1.45
2023-04-12T15:14:08.801Z,1.42
2023-04-12T15:16:55.658Z,1.80
2023-04-12T15:19:41.257Z,2.50
2023-04-12T15:22:26.927Z,1.70
2023-04-12T15:25:12.869Z,1.65
2023-04-12T15:27:58.375Z,1.30
2023-04-12T15:30:44.463Z,1.52
2023-04-12T15:33:34.596Z,1.20
2023-04-12T15:36:21.947Z,1.42
2023-04-12T15:39:07.637Z,1.60
2023-04-12T15:41:53.273Z,0.95
2023-04-12T15:44:38.598Z,0.90
2023-04-12T15:47:24.425Z,0.50
2023-04-12T15:50:10.365Z,0.47
2023-04-12T15:52:56.977Z,0.55
2023-04-12T15:55:45.906Z,0.90
2023-04-12T15:58:32.114Z,0.85
2023-04-12T16:01:21.016Z,0.60
2023-04-12T16:04:07.137Z,0.30
2023-04-12T16:06:53.098Z,0.40
2023-04-12T16:09:39.898Z,1.17
2023-04-12T16:12:25.199Z,0.40
2023-04-12T16:15:11.583Z,0.30
2023-04-12T16:17:58.324Z,0.32
2023-04-12T16:20:44.224Z,0.50
2023-04-12T16:23:29.591Z,0.40
2023-04-12T16:26:22.924Z,0.50
2023-04-12T16:29:09.214Z,0.40
2023-04-12T16:31:55.085Z,0.45
2023-04-12T16:34:44.838Z,0.50
2023-04-12T16:37:30.697Z,1.27
2023-04-12T16:40:17.167Z,0.85
2023-04-12T16:43:03.641Z,1.00
2023-04-12T16:45:49.360Z,1.38
2023-04-12T16:48:44.226Z,1.75
2023-04-12T16:54:35.110Z,1.38
2023-04-12T16:57:21.731Z,1.50
2023-04-12T17:00:22.244Z,0.85
2023-04-12T17:03:08.181Z,0.70
2023-04-12T17:05:56.973Z,0.90
2023-04-12T17:08:44.194Z,0.77
2023-04-12T17:11:29.987Z,0.90
2023-04-12T17:14:15.652Z,1.35
2023-04-12T17:17:01.768Z,1.20
2023-04-12T17:19:48.604Z,1.02
2023-04-12T17:22:34.810Z,1.67
2023-04-12T17:25:22.223Z,1.10
2023-04-12T17:28:13.081Z,1.48
2023-04-12T17:30:59.928Z,1.35
2023-04-12T17:33:45.166Z,1.08
2023-04-12T17:36:34.082Z,1.30
2023-04-12T17:39:20.277Z,1.00
2023-04-12T17:42:07.290Z,1.17
2023-04-12T17:44:52.711Z,1.50
2023-04-12T17:47:39.396Z,1.00
2023-04-12T17:50:24.941Z,1.95
2023-04-12T17:53:11.749Z,0.98
2023-04-12T17:55:57.587Z,1.95
2023-04-12T17:58:43.484Z,1.00
2023-04-12T18:01:29.045Z,1.40
2023-04-12T18:04:15.280Z,1.25
2023-04-12T18:07:01.374Z,1.60
2023-04-12T18:09:46.876Z,1.75
2023-04-12T18:12:32.240Z,1.02
2023-04-12T18:15:18.299Z,1.35
2023-04-12T18:18:04.543Z,0.90
2023-04-12T18:20:49.971Z,1.45
2023-04-12T18:23:35.379Z,1.38
2023-04-12T18:26:23.522Z,3.03
2023-04-12T18:29:11.801Z,1.50
2023-04-12T18:31:57.558Z,1.35
2023-04-12T18:34:43.096Z,1.00
2023-04-12T18:37:28.352Z,1.90
2023-04-12T18:40:14.111Z,1.60
2023-04-12T18:42:59.606Z,1.50
2023-04-12T18:45:45.120Z,1.67
2023-04-12T18:48:30.531Z,1.83
2023-04-12T18:51:16.419Z,2.65
2023-04-12T18:54:02.282Z,1.67
2023-04-12T18:56:48.005Z,1.70
2023-04-12T18:59:33.640Z,1.17
2023-04-12T19:02:19.158Z,1.92
2023-04-12T19:05:05.550Z,1.98
2023-04-12T19:07:52.188Z,1.90
2023-04-12T19:10:37.423Z,1.85
2023-04-12T19:13:23.341Z,0.98
2023-04-12T19:16:09.302Z,0.85
2023-04-12T19:18:57.360Z,2.17
2023-04-12T19:21:43.090Z,1.10
2023-04-12T19:24:28.874Z,1.67
2023-04-12T19:27:14.711Z,1.00
2023-04-12T19:30:00.494Z,1.20
2023-04-12T19:32:46.172Z,1.30
2023-04-12T19:35:33.633Z,1.75
2023-04-12T19:38:21.281Z,1.30
2023-04-12T19:41:07.164Z,1.92
2023-04-12T19:43:52.460Z,1.20
2023-04-12T19:46:38.965Z,0.88
2023-04-12T19:49:24.948Z,0.90
2023-04-12T19:52:11.199Z,0.90
2023-04-12T19:54:57.460Z,1.02
2023-04-12T19:57:44.098Z,0.90
2023-04-12T20:00:30.494Z,0.98
2023-04-12T20:03:16.785Z,0.98
2023-04-12T20:06:04.621Z,0.90
2023-04-12T20:08:50.336Z,1.50
2023-04-12T20:11:35.964Z,1.33
2023-04-12T20:14:21.707Z,1.60
2023-04-12T20:17:08.066Z,0.85
2023-04-12T20:19:55.946Z,1.00
2023-04-12T20:22:43.650Z,0.98
2023-04-12T20:25:29.128Z,1.00
2023-04-12T20:28:15.454Z,0.95
2023-04-12T20:31:01.309Z,0.98
2023-04-12T20:33:47.650Z,1.63
2023-04-12T20:36:33.098Z,1.20
2023-04-12T20:39:18.874Z,1.25
2023-04-12T20:42:05.353Z,1.33
2023-04-12T20:44:50.922Z,0.88
2023-04-12T20:47:38.035Z,0.90
2023-04-12T20:50:24.616Z,0.70
2023-04-12T20:53:18.537Z,1.05
2023-04-12T20:58:50.452Z,0.98
2023-04-12T21:01:37.152Z,0.90
2023-04-12T21:04:23.214Z,1.00
2023-04-12T21:07:09.616Z,0.65
2023-04-12T21:09:55.522Z,0.75
2023-04-12T21:12:42.861Z,1.10
2023-04-12T21:15:30.236Z,0.45
2023-04-12T21:18:17.177Z,0.60
2023-04-12T21:21:03.703Z,0.50
2023-04-12T21:24:16.904Z,0.60
2023-04-12T21:27:07.622Z,0.70
2023-04-12T21:29:53.024Z,0.60
2023-04-12T21:32:39.383Z,0.55
2023-04-12T21:35:26.175Z,0.55
2023-04-12T21:38:11.577Z,0.50
2023-04-12T21:41:09.853Z,0.77
2023-04-12T21:43:55.953Z,0.60
2023-04-12T21:46:41.812Z,0.40
2023-04-12T21:49:27.613Z,0.70
2023-04-12T21:53:09.008Z,0.20
2023-04-12T21:56:01.110Z,0.20
2023-04-12T21:59:00.498Z,0.40
2023-04-12T22:08:30.272Z,0.30
2023-04-12T22:11:15.853Z,0.30
2023-04-12T22:14:01.228Z,0.30
2023-04-12T22:16:46.841Z,0.20
2023-04-12T22:19:32.691Z,0.35
2023-04-12T22:22:18.243Z,0.40
2023-04-12T22:25:05.031Z,0.47
2023-04-12T22:27:53.005Z,0.20
2023-04-12T22:30:38.537Z,0.35
2023-04-12T22:33:24.068Z,0.38
2023-04-12T22:36:09.867Z,0.68
2023-04-12T22:38:55.344Z,0.20
2023-04-12T22:41:42.148Z,0.45
2023-04-12T22:44:29.339Z,0.30
2023-04-12T22:47:15.661Z,0.52
2023-04-12T22:50:02.796Z,0.20
2023-04-12T22:52:50.021Z,0.40
2023-04-12T22:55:36.676Z,0.57
2023-04-12T22:58:22.610Z,0.30
2023-04-12T23:01:10.890Z,0.30
2023-04-12T23:03:56.606Z,0.20
2023-04-12T23:06:43.901Z,0.75
2023-04-12T23:09:29.518Z,0.40
2023-04-12T23:12:15.154Z,0.38
2023-04-12T23:15:00.645Z,0.40
2023-04-12T23:17:46.074Z,0.32
2023-04-12T23:20:32.894Z,0.35
2023-04-12T23:23:18.633Z,0.35
2023-04-12T23:26:04.154Z,0.50
2023-04-12T23:28:50.466Z,0.50
2023-04-12T23:31:36.434Z,0.45
2023-04-12T23:34:22.207Z,0.40
2023-04-12T23:37:08.680Z,0.50
2023-04-12T23:40:02.520Z,0.40
2023-04-12T23:42:48.731Z,0.40
2023-04-12T23:45:33.985Z,0.65
2023-04-12T23:48:19.937Z,0.45
2023-04-12T23:51:07.681Z,0.50
2023-04-12T23:53:53.543Z,0.57
2023-04-12T23:56:39.328Z,0.75
2023-04-12T23:59:26.457Z,1.55
